Palmerston, Canada
Current Conditions -  °F | °C
As of 4:47 PM on Saturday 22 Nov 2014 (Local Time) from CYKF Reporting Station
Haze Haze  
Wind Chill: 28°   Ceiling: 600
Heat Index: 37°   Visibility: 3mi
Dew Point: 36°   Wind: 17mph
Humidity: 93%   Direction: 230°SW
Pressure: 29.92"   Gusts: 23mph
Location:  43.83°N, 80.85°W
Report Text: CYKF 222147Z AUTO 23015G20KT 3SM BR OVC006 03/02 A2992 RMK SLP143
Loading
Personal Weather Stations






























Interactive Weather Map New forecast layout! Learn more

10-Day Weather Forecast

Advertisements
Track Severe Weather on mobile